createdAt,value
2023-05-16T04:34:39.639Z,100350.30
2023-05-16T04:37:08.578Z,100347.23
2023-05-16T04:39:36.748Z,100347.64
2023-05-16T04:42:04.530Z,100348.38
2023-05-16T04:44:31.821Z,100344.36
2023-05-16T04:46:58.924Z,100349.12
2023-05-16T04:49:26.282Z,100350.91
2023-05-16T04:51:53.457Z,100352.17
2023-05-16T04:54:20.375Z,100357.11
2023-05-16T04:56:47.341Z,100360.99
2023-05-16T04:59:14.327Z,100361.02
2023-05-16T05:01:41.385Z,100364.90
2023-05-16T05:04:08.424Z,100365.42
2023-05-16T05:06:35.369Z,100367.70
2023-05-16T05:09:02.273Z,100366.64
2023-05-16T05:11:29.144Z,100364.52
2023-05-16T05:13:56.016Z,100362.42
2023-05-16T05:16:23.347Z,100361.16
2023-05-16T05:18:50.697Z,100360.46
2023-05-16T05:21:20.491Z,100360.98
2023-05-16T05:23:51.451Z,100366.37
2023-05-16T05:26:19.486Z,100372.15
2023-05-16T05:29:03.976Z,100375.48
2023-05-16T05:31:33.838Z,100376.66
2023-05-16T05:38:02.999Z,100385.41
2023-05-16T05:49:27.401Z,100388.31
2023-05-16T05:53:01.082Z,100388.92
2023-05-16T05:59:17.757Z,100394.02
2023-05-16T06:02:56.852Z,100399.29
2023-05-16T06:05:32.975Z,100398.77
2023-05-16T06:08:02.066Z,100401.11
2023-05-16T06:10:33.013Z,100406.13
2023-05-16T06:13:03.674Z,100403.74
2023-05-16T06:15:32.231Z,100406.77
2023-05-16T06:18:05.856Z,100408.35
2023-05-16T06:20:48.456Z,100413.80
2023-05-16T06:30:05.106Z,100413.04
2023-05-16T06:32:57.543Z,100413.59
2023-05-16T06:35:43.236Z,100414.31
2023-05-16T06:38:10.346Z,100414.14
2023-05-16T06:40:37.718Z,100417.27
2023-05-16T06:43:05.289Z,100421.84
2023-05-16T06:45:32.906Z,100425.66
2023-05-16T06:48:00.123Z,100438.06
2023-05-16T06:50:27.475Z,100442.89
2023-05-16T06:52:56.758Z,100444.53
2023-05-16T06:55:24.405Z,100447.56
2023-05-16T06:57:52.114Z,100450.24
2023-05-16T07:00:19.847Z,100451.70
2023-05-16T07:02:47.260Z,100453.67
2023-05-16T07:05:14.381Z,100454.38
2023-05-16T07:08:30.202Z,100453.61
2023-05-16T07:11:21.962Z,100452.94
2023-05-16T07:14:13.398Z,100459.89
2023-05-16T07:17:13.194Z,100461.56
2023-05-16T07:20:42.324Z,100459.81
2023-05-16T07:23:57.316Z,100461.05
2023-05-16T07:26:29.307Z,100462.69
2023-05-16T07:28:58.133Z,100466.45
2023-05-16T07:31:26.903Z,100470.13
2023-05-16T07:33:54.069Z,100465.64
2023-05-16T07:36:21.445Z,100465.58
2023-05-16T07:38:48.460Z,100466.61
2023-05-16T07:41:15.434Z,100467.91
2023-05-16T07:43:42.562Z,100463.09
2023-05-16T07:46:10.395Z,100455.61
2023-05-16T07:48:41.195Z,100456.63
2023-05-16T07:51:09.435Z,100452.30
2023-05-16T07:53:36.703Z,100446.23
2023-05-16T07:56:05.856Z,100435.74
2023-05-16T07:58:36.472Z,100422.65
2023-05-16T08:01:03.805Z,100411.79
2023-05-16T08:03:37.959Z,100413.45
2023-05-16T08:06:21.653Z,100420.39
2023-05-16T08:09:33.781Z,100422.43
2023-05-16T08:20:20.456Z,100426.14
2023-05-16T08:24:08.437Z,100425.91
2023-05-16T08:27:30.259Z,100431.88
2023-05-16T08:30:35.097Z,100427.48
2023-05-16T08:33:05.130Z,100425.48
2023-05-16T08:35:32.741Z,100422.92
2023-05-16T08:38:00.892Z,100416.88
2023-05-16T08:40:28.656Z,100410.27
2023-05-16T08:43:01.652Z,100410.66
2023-05-16T08:46:32.032Z,100414.58
2023-05-16T08:58:05.293Z,100398.46
2023-05-16T09:01:33.993Z,100400.33
2023-05-16T09:05:03.580Z,100395.70
2023-05-16T09:08:43.988Z,100391.16
2023-05-16T09:15:53.263Z,100401.67
2023-05-16T09:18:45.516Z,100401.04
2023-05-16T09:21:19.182Z,100400.45
2023-05-16T09:23:46.647Z,100400.73
2023-05-16T09:26:20.013Z,100393.23
2023-05-16T09:29:19.724Z,100397.73
2023-05-16T09:33:08.061Z,100401.16
2023-05-16T09:39:58.433Z,100405.52
2023-05-16T09:42:34.070Z,100405.17
2023-05-16T09:45:12.205Z,100405.94
2023-05-16T09:47:46.141Z,100402.77
2023-05-16T09:50:17.405Z,100403.66
2023-05-16T09:52:46.555Z,100406.30
2023-05-16T09:55:17.487Z,100404.50
2023-05-16T09:57:45.181Z,100402.70
2023-05-16T10:00:13.770Z,100403.88
2023-05-16T10:02:40.845Z,100403.59
2023-05-16T10:05:08.343Z,100403.81
2023-05-16T10:07:35.676Z,100402.79
2023-05-16T10:10:08.613Z,100403.92
2023-05-16T10:12:35.868Z,100406.61
2023-05-16T10:15:03.352Z,100406.73
2023-05-16T10:17:32.554Z,100407.13
2023-05-16T10:20:05.930Z,100406.56
2023-05-16T10:22:36.162Z,100405.94
2023-05-16T10:25:10.619Z,100404.46
2023-05-16T10:27:37.642Z,100405.46
2023-05-16T10:30:05.937Z,100408.68
2023-05-16T10:32:32.992Z,100409.15
2023-05-16T10:35:03.340Z,100406.16
2023-05-16T10:37:31.291Z,100408.44
2023-05-16T10:40:00.081Z,100405.78
2023-05-16T10:42:27.033Z,100410.38
2023-05-16T10:45:05.026Z,100409.50
2023-05-16T10:47:33.157Z,100412.91
2023-05-16T10:50:00.191Z,100413.61
2023-05-16T10:52:33.902Z,100416.16
2023-05-16T10:55:02.926Z,100406.77
2023-05-16T10:57:29.852Z,100403.56
2023-05-16T11:00:01.820Z,100403.77
2023-05-16T11:02:33.862Z,100402.95
2023-05-16T11:05:02.088Z,100397.87
2023-05-16T11:07:36.755Z,100393.13
2023-05-16T11:10:11.668Z,100389.59
2023-05-16T11:12:45.477Z,100385.85
2023-05-16T11:15:24.892Z,100383.30
2023-05-16T11:18:07.984Z,100377.73
2023-05-16T11:20:36.430Z,100372.72
2023-05-16T11:23:16.855Z,100374.10
2023-05-16T11:25:45.806Z,100371.77
2023-05-16T11:28:13.654Z,100367.30
2023-05-16T11:30:44.837Z,100364.39
2023-05-16T11:33:13.533Z,100365.80
2023-05-16T11:35:40.655Z,100363.66
2023-05-16T11:38:12.692Z,100366.14
2023-05-16T11:40:43.004Z,100365.19
2023-05-16T11:43:10.084Z,100367.02
2023-05-16T11:45:37.498Z,100363.75
2023-05-16T11:48:04.782Z,100360.81
2023-05-16T11:50:34.204Z,100360.23
2023-05-16T11:53:01.611Z,100357.08
2023-05-16T11:55:41.005Z,100354.66
2023-05-16T11:58:08.618Z,100351.66
2023-05-16T12:00:35.877Z,100351.63
2023-05-16T12:03:05.255Z,100351.22
2023-05-16T12:05:34.317Z,100342.76
2023-05-16T12:08:03.715Z,100336.65
2023-05-16T12:10:31.583Z,100332.38
2023-05-16T12:12:58.482Z,100328.68
2023-05-16T12:15:25.774Z,100325.27
2023-05-16T12:17:53.090Z,100323.84
2023-05-16T12:20:20.265Z,100315.45
2023-05-16T12:22:47.325Z,100317.00
2023-05-16T12:25:32.279Z,100314.14
2023-05-16T12:28:02.447Z,100315.41
2023-05-16T12:30:31.930Z,100322.70
2023-05-16T12:33:08.009Z,100319.02
2023-05-16T12:35:37.559Z,100310.74
2023-05-16T12:38:08.722Z,100308.75
2023-05-16T12:40:42.473Z,100311.17
2023-05-16T12:43:15.591Z,100306.70
2023-05-16T12:45:43.496Z,100304.31
2023-05-16T12:48:14.233Z,100295.35
2023-05-16T12:50:41.949Z,100296.42
2023-05-16T12:53:18.388Z,100290.58
2023-05-16T12:55:45.454Z,100288.64
2023-05-16T12:58:12.656Z,100286.74
2023-05-16T13:00:39.984Z,100287.91
2023-05-16T13:03:08.036Z,100285.24
2023-05-16T13:05:36.557Z,100287.77
2023-05-16T13:08:04.356Z,100283.35
2023-05-16T13:10:31.430Z,100286.34
2023-05-16T13:13:01.209Z,100286.66
2023-05-16T13:15:28.643Z,100280.45
2023-05-16T13:17:56.260Z,100280.70
2023-05-16T13:20:23.658Z,100278.57
